MHRO

Details ICAO MHRO (RTB)
Name Roatan
Region Honduras
Timezone Unknown
Plans Departing 137
Arriving 150
Stats Elevation 18 ft / 5 m (AMSL)
Location 16.316600° -86.523400°
Runways 1
Magnetic Variation 1.630° W
Sunrise 2019-07-20 11:24:25 UTC / 2019-07-20 11:24:25 Local
Sunset 2019-07-21 00:22:39 UTC / 2019-07-21 00:22:39 Local
Advertisement - Login to hide

Runways

ID Width Length Bearing (true/mag) Surface Threshold Overrun Markings Lighting
07 148 ft / 45 m 7,672 ft / 2,338 m 65.02° / 66.65° ASPHALT 518 ft / 158 m 0 ft / 0 m PREC-APP EDGE THRESHOLD
25 148 ft / 45 m 7,672 ft / 2,338 m 245.02° / 246.65° ASPHALT 0 ft / 0 m 0 ft / 0 m PREC-APP EDGE THRESHOLD

Map

Weather


0- 5 10 15 20 25 30 35+ Temperature / °C

Clouds and Precipitation
Forecast for 2019-07-21 00:00 UTC. Updated 7 minutes ago

Ground ~20,000 ft ~40,000 ft Winds

METAR

MHRO 202100Z 09015KT 9999 FEW020 BKN200 29/26 Q1011 A2986 NOSIG

TAF

TAF TAF MHRO 201630Z 2018/2118 09015KT 8000 VCSH SCT016 BKN070 TX30/2019Z TN26/2112Z TEMPO 2021/2103 6000 -RA SCT016 BKN080 BECMG 2104/2106 9999 NSW SCT020 SCT070

Frequencies

Ground 121.60 MHz Roatan Ground
Tower 118.10 MHz Roatan Tower
Warning: Do not use this data for real-world aviation or navigation. No guarantee of current accuracy is given.